createdAt,value
2023-02-24T00:01:44.462Z,20.40
2023-02-24T00:10:21.623Z,19.00
2023-02-24T00:14:26.757Z,19.95
2023-02-24T00:18:29.769Z,19.08
2023-02-24T00:22:32.998Z,17.48
2023-02-24T00:26:37.323Z,18.60
2023-02-24T00:30:40.602Z,17.30
2023-02-24T00:34:44.060Z,17.08
2023-02-24T00:38:47.688Z,15.20
2023-02-24T00:42:54.336Z,17.90
2023-02-24T00:46:58.214Z,17.38
2023-02-24T00:51:02.350Z,17.25
2023-02-24T00:55:15.488Z,19.85
2023-02-24T00:59:20.824Z,21.27
2023-02-24T01:03:26.178Z,19.85
2023-02-24T01:07:29.870Z,20.40
2023-02-24T01:12:04.180Z,18.60
2023-02-24T01:16:09.285Z,20.25
2023-02-24T01:20:18.347Z,21.20
2023-02-24T01:24:22.433Z,19.90
2023-02-24T01:28:25.559Z,19.92
2023-02-24T01:32:32.356Z,19.88
2023-02-24T01:36:35.656Z,17.67
2023-02-24T01:40:38.826Z,16.83
2023-02-24T01:45:17.114Z,19.58
2023-02-24T01:49:27.536Z,18.05
2023-02-24T01:53:32.977Z,19.35
2023-02-24T01:57:39.938Z,17.55
2023-02-24T02:01:46.320Z,16.27
2023-02-24T02:05:52.733Z,16.92
2023-02-24T02:09:56.774Z,17.40
2023-02-24T02:14:01.946Z,17.45
2023-02-24T02:18:13.699Z,15.80
2023-02-24T02:22:46.149Z,15.68
2023-02-24T02:27:21.258Z,15.02
2023-02-24T02:31:56.015Z,14.85
2023-02-24T02:36:08.646Z,17.10
2023-02-24T02:40:20.161Z,12.77
2023-02-24T02:44:34.059Z,14.63
2023-02-24T02:48:41.636Z,11.77
2023-02-24T02:52:56.156Z,10.77
2023-02-24T02:57:06.802Z,11.88
2023-02-24T03:01:12.701Z,10.50
2023-02-24T03:09:30.296Z,10.13
2023-02-24T03:13:41.824Z,11.18
2023-02-24T03:17:47.545Z,13.55
2023-02-24T03:22:00.233Z,11.82
2023-02-24T03:26:17.780Z,10.52
2023-02-24T03:30:26.977Z,10.13
2023-02-24T03:34:41.110Z,9.77
2023-02-24T03:38:49.530Z,9.45
2023-02-24T03:43:05.932Z,9.88
2023-02-24T03:47:10.399Z,8.90
2023-02-24T03:51:18.230Z,10.15
2023-02-24T03:55:33.328Z,10.52
2023-02-24T04:00:30.069Z,9.75
2023-02-24T04:04:40.112Z,9.98
2023-02-24T04:08:51.748Z,9.52
2023-02-24T04:13:02.287Z,9.15
2023-02-24T04:17:14.157Z,11.55
2023-02-24T04:21:19.074Z,9.90
2023-02-24T04:25:26.021Z,11.10
2023-02-24T04:29:35.867Z,9.30
2023-02-24T04:33:41.023Z,9.65
2023-02-24T04:37:45.333Z,10.85
2023-02-24T04:41:50.726Z,11.13
2023-02-24T04:45:53.708Z,11.52
2023-02-24T04:49:58.580Z,11.32
2023-02-24T04:54:02.176Z,11.73
2023-02-24T04:58:05.415Z,10.75
2023-02-24T05:02:08.837Z,13.27
2023-02-24T05:06:17.806Z,12.95
2023-02-24T05:10:21.676Z,14.27
2023-02-24T05:14:25.058Z,14.30
2023-02-24T05:18:32.283Z,13.55
2023-02-24T05:22:36.763Z,13.32
2023-02-24T05:26:42.222Z,10.10
2023-02-24T05:30:45.146Z,13.07
2023-02-24T05:34:48.761Z,11.18
2023-02-24T05:38:57.998Z,13.02
2023-02-24T05:43:04.804Z,11.02
2023-02-24T05:47:07.729Z,9.65
2023-02-24T05:51:13.182Z,8.82
2023-02-24T05:55:18.013Z,9.02
2023-02-24T05:59:21.695Z,9.05
2023-02-24T06:03:31.528Z,8.25
2023-02-24T06:07:34.938Z,7.72
2023-02-24T06:11:41.397Z,9.32
2023-02-24T06:15:50.873Z,8.93
2023-02-24T06:19:54.583Z,10.07
2023-02-24T06:23:59.282Z,9.52
2023-02-24T06:28:03.557Z,9.20
2023-02-24T06:32:09.118Z,9.55
2023-02-24T06:36:14.368Z,9.95
2023-02-24T06:40:18.328Z,8.90
2023-02-24T06:44:24.406Z,7.88
2023-02-24T06:48:28.710Z,8.82
2023-02-24T06:52:32.529Z,9.10
2023-02-24T06:56:38.913Z,8.88
2023-02-24T07:00:46.970Z,9.18
2023-02-24T07:04:49.847Z,8.25
2023-02-24T07:08:54.075Z,8.57
2023-02-24T07:12:57.437Z,8.48
2023-02-24T07:17:01.766Z,8.70
2023-02-24T07:21:42.282Z,9.60
2023-02-24T07:25:46.510Z,9.77
2023-02-24T07:29:52.930Z,8.32
2023-02-24T07:33:58.206Z,8.57
2023-02-24T07:38:05.594Z,8.50
2023-02-24T07:42:12.967Z,8.52
2023-02-24T07:46:19.711Z,9.07
2023-02-24T07:50:24.165Z,9.55
2023-02-24T07:54:30.644Z,7.93
2023-02-24T07:58:34.934Z,7.45
2023-02-24T08:02:39.366Z,7.60
2023-02-24T08:06:47.957Z,8.15
2023-02-24T08:10:53.765Z,7.70
2023-02-24T08:15:00.341Z,8.38
2023-02-24T08:19:04.057Z,8.32
2023-02-24T08:23:10.944Z,8.88
2023-02-24T08:27:14.463Z,9.52
2023-02-24T08:31:18.863Z,9.65
2023-02-24T08:35:23.739Z,10.68
2023-02-24T08:39:30.272Z,8.65
2023-02-24T08:43:40.343Z,6.97
2023-02-24T08:47:45.957Z,6.60
2023-02-24T08:51:52.998Z,5.65
2023-02-24T08:55:57.921Z,5.57
2023-02-24T09:00:00.772Z,6.90
2023-02-24T09:04:07.540Z,6.07
2023-02-24T09:08:10.492Z,5.85
2023-02-24T09:12:22.398Z,5.65
2023-02-24T09:16:26.781Z,5.93
2023-02-24T09:20:52.977Z,6.00
2023-02-24T09:25:16.243Z,7.22
2023-02-24T09:33:51.866Z,6.68
2023-02-24T09:37:57.029Z,6.35
2023-02-24T09:42:25.123Z,6.43
2023-02-24T09:46:28.238Z,6.70
2023-02-24T09:51:02.188Z,5.45
2023-02-24T09:55:25.283Z,6.75
2023-02-24T09:59:34.951Z,7.57
2023-02-24T10:03:48.328Z,7.55
2023-02-24T10:07:57.629Z,6.78
2023-02-24T10:12:05.996Z,7.03
2023-02-24T10:16:16.072Z,6.72
2023-02-24T10:20:31.479Z,6.63
2023-02-24T10:24:47.697Z,5.75
2023-02-24T10:28:58.800Z,6.63
2023-02-24T10:33:07.715Z,5.88
2023-02-24T10:37:27.685Z,6.20
2023-02-24T10:41:46.190Z,6.07
2023-02-24T10:45:49.605Z,6.68
2023-02-24T10:49:58.235Z,5.00
2023-02-24T10:54:34.686Z,6.22
2023-02-24T10:58:45.633Z,6.68
2023-02-24T11:03:07.261Z,7.10
2023-02-24T11:07:24.983Z,7.38
2023-02-24T11:11:58.473Z,5.65
2023-02-24T11:16:20.875Z,6.47
2023-02-24T11:20:46.443Z,5.75
2023-02-24T11:24:53.228Z,6.05
2023-02-24T11:29:13.737Z,6.47
2023-02-24T11:33:31.486Z,6.10
2023-02-24T11:37:42.847Z,5.97
2023-02-24T11:41:51.042Z,6.43
2023-02-24T11:46:01.433Z,6.20
2023-02-24T11:50:19.322Z,6.10
2023-02-24T11:54:24.121Z,6.10
2023-02-24T11:58:33.179Z,5.90
2023-02-24T12:02:47.205Z,6.75
2023-02-24T12:06:59.418Z,6.90
2023-02-24T12:11:07.276Z,5.77
2023-02-24T12:15:19.283Z,6.75
2023-02-24T12:19:30.779Z,6.97
2023-02-24T12:23:37.559Z,6.03
2023-02-24T12:27:53.141Z,5.90
2023-02-24T12:32:05.759Z,6.05
2023-02-24T12:36:22.182Z,5.57
2023-02-24T12:40:39.148Z,6.05
2023-02-24T12:44:51.688Z,6.75
2023-02-24T12:49:23.473Z,6.78
2023-02-24T12:53:34.407Z,7.90
2023-02-24T12:57:46.502Z,6.32
2023-02-24T13:02:01.602Z,6.90
2023-02-24T13:06:14.356Z,8.32
2023-02-24T13:10:31.661Z,7.20
2023-02-24T13:14:39.070Z,7.00
2023-02-24T13:18:43.422Z,7.57
2023-02-24T13:22:48.566Z,12.02
2023-02-24T13:26:52.097Z,9.05
2023-02-24T13:31:05.405Z,9.27
2023-02-24T13:35:33.504Z,7.63
2023-02-24T13:39:41.515Z,10.05
2023-02-24T13:43:55.639Z,9.63
2023-02-24T13:48:19.780Z,9.85
2023-02-24T13:52:37.225Z,8.52
2023-02-24T13:56:46.035Z,8.15
2023-02-24T14:01:04.426Z,8.98
2023-02-24T14:05:18.051Z,8.75
2023-02-24T14:09:27.193Z,8.82
2023-02-24T14:13:34.445Z,9.38
2023-02-24T14:17:39.212Z,9.38
2023-02-24T14:21:51.691Z,8.45
2023-02-24T14:25:57.339Z,8.00
2023-02-24T14:30:00.940Z,8.23
2023-02-24T14:34:09.141Z,6.60
2023-02-24T14:38:44.986Z,6.20
2023-02-24T14:42:49.696Z,5.70
2023-02-24T14:46:55.097Z,7.53
2023-02-24T14:51:03.446Z,6.70
2023-02-24T14:55:13.968Z,6.10
2023-02-24T14:59:30.736Z,6.43
2023-02-24T15:03:38.159Z,5.93
2023-02-24T15:07:44.873Z,6.78
2023-02-24T15:11:54.386Z,6.55
2023-02-24T15:15:58.223Z,5.13
2023-02-24T15:20:01.400Z,6.20
2023-02-24T15:24:06.679Z,5.72
2023-02-24T15:28:26.798Z,7.32
2023-02-24T15:32:44.204Z,6.32
2023-02-24T15:36:51.023Z,5.72
2023-02-24T15:41:04.399Z,5.93
2023-02-24T15:49:38.302Z,6.43
2023-02-24T15:53:42.998Z,6.32
2023-02-24T15:57:47.492Z,6.90
2023-02-24T16:01:51.937Z,7.63
2023-02-24T16:05:57.891Z,6.78
2023-02-24T16:10:04.183Z,6.85
2023-02-24T16:14:07.284Z,8.55
2023-02-24T16:18:21.958Z,8.85
2023-02-24T16:22:27.830Z,8.00
2023-02-24T16:26:34.121Z,8.93
2023-02-24T16:30:37.227Z,7.70
2023-02-24T16:34:42.017Z,7.38
2023-02-24T16:38:51.077Z,8.07
2023-02-24T16:42:53.968Z,9.10
2023-02-24T16:46:57.834Z,8.93
2023-02-24T16:51:00.814Z,9.07
2023-02-24T16:55:06.180Z,6.75
2023-02-24T16:59:09.344Z,8.50
2023-02-24T17:03:19.388Z,8.40
2023-02-24T17:07:22.233Z,8.82
2023-02-24T17:15:31.569Z,8.00
2023-02-24T17:19:34.795Z,7.68
2023-02-24T17:23:38.320Z,8.55
2023-02-24T17:27:44.167Z,9.10
2023-02-24T17:31:47.802Z,9.18
2023-02-24T17:35:51.127Z,8.57
2023-02-24T17:39:54.255Z,8.18
2023-02-24T17:43:58.588Z,9.07
2023-02-24T17:48:02.038Z,9.32
2023-02-24T17:52:06.344Z,8.77
2023-02-24T17:56:10.274Z,8.18
2023-02-24T18:00:16.235Z,9.27
2023-02-24T18:04:19.619Z,8.00
2023-02-24T18:08:23.421Z,7.90
2023-02-24T18:12:26.974Z,8.30
2023-02-24T18:16:31.732Z,7.82
2023-02-24T18:20:34.967Z,8.40
2023-02-24T18:24:42.337Z,9.50
2023-02-24T18:28:45.696Z,10.15
2023-02-24T18:32:51.964Z,9.50
2023-02-24T18:36:56.242Z,10.95
2023-02-24T18:41:00.770Z,10.50
2023-02-24T18:45:03.818Z,10.88
2023-02-24T18:49:09.937Z,11.43
2023-02-24T18:53:12.783Z,7.25
2023-02-24T18:57:15.901Z,7.20
2023-02-24T19:01:21.462Z,7.22
2023-02-24T19:05:37.741Z,6.55
2023-02-24T19:09:42.945Z,6.47
2023-02-24T19:13:47.632Z,6.78
2023-02-24T19:17:50.956Z,5.40
2023-02-24T19:21:55.744Z,4.13
2023-02-24T19:25:59.179Z,3.25
2023-02-24T19:30:02.493Z,3.13
2023-02-24T19:34:07.892Z,3.50
2023-02-24T19:38:14.956Z,3.88
2023-02-24T19:42:18.152Z,4.05
2023-02-24T19:46:21.573Z,3.67
2023-02-24T19:50:25.563Z,4.15
2023-02-24T19:54:30.947Z,3.58
2023-02-24T19:58:34.629Z,3.25
2023-02-24T20:02:38.545Z,3.35
2023-02-24T20:06:44.390Z,4.55
2023-02-24T20:10:48.686Z,3.25
2023-02-24T20:14:52.249Z,3.00
2023-02-24T20:18:56.519Z,3.75
2023-02-24T20:23:03.130Z,3.60
2023-02-24T20:27:08.436Z,3.30
2023-02-24T20:31:13.256Z,3.05
2023-02-24T20:35:16.674Z,2.83
2023-02-24T20:39:19.747Z,2.58
2023-02-24T20:43:24.418Z,3.20
2023-02-24T20:47:27.497Z,3.25
2023-02-24T20:51:31.942Z,3.17
2023-02-24T20:55:35.325Z,1.98
2023-02-24T20:59:49.235Z,2.55
2023-02-24T21:03:59.278Z,2.40
2023-02-24T21:08:02.236Z,2.28
2023-02-24T21:12:07.280Z,2.70
2023-02-24T21:16:13.362Z,2.05
2023-02-24T21:20:16.572Z,2.00
2023-02-24T21:24:19.549Z,1.48
2023-02-24T21:28:23.954Z,1.65
2023-02-24T21:32:29.997Z,2.38
2023-02-24T21:36:32.934Z,2.65
2023-02-24T21:40:37.198Z,1.38
2023-02-24T21:44:43.563Z,1.88
2023-02-24T21:48:48.997Z,1.63
2023-02-24T21:52:52.505Z,1.25
2023-02-24T21:56:55.442Z,0.63
2023-02-24T22:00:59.917Z,1.00
2023-02-24T22:05:04.271Z,1.02
2023-02-24T22:09:11.400Z,1.85
2023-02-24T22:13:14.352Z,1.63
2023-02-24T22:17:18.177Z,1.27
2023-02-24T22:21:24.951Z,1.38
2023-02-24T22:25:27.878Z,1.20
2023-02-24T22:29:31.216Z,1.58
2023-02-24T22:33:36.701Z,1.35
2023-02-24T22:37:41.423Z,1.60
2023-02-24T22:41:44.780Z,2.03
2023-02-24T22:45:58.011Z,1.48
2023-02-24T22:50:01.093Z,1.48
2023-02-24T22:54:06.856Z,1.50
2023-02-24T22:58:10.047Z,1.55
2023-02-24T23:02:13.252Z,2.50
2023-02-24T23:06:18.080Z,2.13
2023-02-24T23:10:22.716Z,3.03
2023-02-24T23:14:26.937Z,3.63
2023-02-24T23:18:30.079Z,4.78
2023-02-24T23:22:32.998Z,4.45
2023-02-24T23:26:41.181Z,4.10
2023-02-24T23:30:46.242Z,3.95
2023-02-24T23:34:49.425Z,3.92
2023-02-24T23:38:53.174Z,4.05
2023-02-24T23:42:57.559Z,4.63
2023-02-24T23:47:01.681Z,2.08
2023-02-24T23:51:06.002Z,3.75
2023-02-24T23:55:11.199Z,1.92
2023-02-24T23:59:16.655Z,3.10
